sensor_id;sensor_type;location;lat;lon;timestamp;P1;durP1;ratioP1;P2;durP2;ratioP2
73816;SDS011;62146;53.232;-1.304;2022-10-16T00:01:13;6.95;;;1.20;;
73816;SDS011;62146;53.232;-1.304;2022-10-16T00:03:42;6.97;;;1.03;;
73816;SDS011;62146;53.232;-1.304;2022-10-16T00:06:10;4.90;;;1.00;;
73816;SDS011;62146;53.232;-1.304;2022-10-16T00:08:37;5.68;;;1.20;;
73816;SDS011;62146;53.232;-1.304;2022-10-16T00:13:32;4.97;;;1.33;;
73816;SDS011;62146;53.232;-1.304;2022-10-16T00:16:00;5.60;;;1.10;;
73816;SDS011;62146;53.232;-1.304;2022-10-16T00:18:28;6.00;;;0.98;;
73816;SDS011;62146;53.232;-1.304;2022-10-16T00:20:56;7.72;;;1.13;;
73816;SDS011;62146;53.232;-1.304;2022-10-16T00:23:27;7.72;;;1.30;;
73816;SDS011;62146;53.232;-1.304;2022-10-16T00:25:58;7.35;;;1.13;;
73816;SDS011;62146;53.232;-1.304;2022-10-16T00:28:27;7.23;;;1.20;;
73816;SDS011;62146;53.232;-1.304;2022-10-16T00:30:54;6.18;;;1.30;;
73816;SDS011;62146;53.232;-1.304;2022-10-16T00:33:20;7.90;;;1.60;;
73816;SDS011;62146;53.232;-1.304;2022-10-16T00:35:47;6.18;;;1.30;;
73816;SDS011;62146;53.232;-1.304;2022-10-16T00:38:14;5.63;;;1.05;;
73816;SDS011;62146;53.232;-1.304;2022-10-16T00:40:41;7.70;;;1.40;;
73816;SDS011;62146;53.232;-1.304;2022-10-16T00:43:11;6.35;;;1.38;;
73816;SDS011;62146;53.232;-1.304;2022-10-16T00:45:57;8.15;;;1.80;;
73816;SDS011;62146;53.232;-1.304;2022-10-16T00:48:24;7.68;;;1.02;;
73816;SDS011;62146;53.232;-1.304;2022-10-16T00:50:51;7.35;;;1.65;;
73816;SDS011;62146;53.232;-1.304;2022-10-16T00:53:18;6.87;;;1.40;;
73816;SDS011;62146;53.232;-1.304;2022-10-16T00:55:45;8.57;;;1.63;;
73816;SDS011;62146;53.232;-1.304;2022-10-16T00:58:12;8.32;;;1.45;;
73816;SDS011;62146;53.232;-1.304;2022-10-16T01:00:38;7.03;;;1.35;;
73816;SDS011;62146;53.232;-1.304;2022-10-16T01:03:21;6.53;;;1.25;;
73816;SDS011;62146;53.232;-1.304;2022-10-16T01:05:59;7.80;;;1.30;;
73816;SDS011;62146;53.232;-1.304;2022-10-16T01:17:11;6.63;;;1.30;;
73816;SDS011;62146;53.232;-1.304;2022-10-16T01:22:37;5.10;;;1.40;;
73816;SDS011;62146;53.232;-1.304;2022-10-16T01:25:11;6.93;;;1.30;;
73816;SDS011;62146;53.232;-1.304;2022-10-16T01:27:45;6.40;;;1.38;;
73816;SDS011;62146;53.232;-1.304;2022-10-16T01:30:16;7.25;;;1.42;;
73816;SDS011;62146;53.232;-1.304;2022-10-16T01:35:21;7.00;;;1.38;;
73816;SDS011;62146;53.232;-1.304;2022-10-16T01:38:38;6.72;;;1.40;;
73816;SDS011;62146;53.232;-1.304;2022-10-16T01:40:54;5.43;;;1.23;;
73816;SDS011;62146;53.232;-1.304;2022-10-16T01:43:28;6.72;;;1.45;;
73816;SDS011;62146;53.232;-1.304;2022-10-16T01:46:06;6.83;;;1.03;;
73816;SDS011;62146;53.232;-1.304;2022-10-16T01:48:36;6.28;;;1.20;;
73816;SDS011;62146;53.232;-1.304;2022-10-16T01:51:08;8.25;;;1.20;;
73816;SDS011;62146;53.232;-1.304;2022-10-16T01:53:37;6.97;;;1.10;;
73816;SDS011;62146;53.232;-1.304;2022-10-16T01:56:06;6.60;;;1.20;;
73816;SDS011;62146;53.232;-1.304;2022-10-16T01:58:37;8.17;;;1.30;;
73816;SDS011;62146;53.232;-1.304;2022-10-16T02:01:09;5.97;;;1.00;;
73816;SDS011;62146;53.232;-1.304;2022-10-16T02:03:39;5.72;;;1.20;;
73816;SDS011;62146;53.232;-1.304;2022-10-16T02:06:09;6.15;;;1.13;;
73816;SDS011;62146;53.232;-1.304;2022-10-16T02:08:36;5.38;;;0.98;;
73816;SDS011;62146;53.232;-1.304;2022-10-16T02:11:02;5.53;;;1.00;;
73816;SDS011;62146;53.232;-1.304;2022-10-16T02:13:36;5.93;;;1.20;;
73816;SDS011;62146;53.232;-1.304;2022-10-16T02:16:05;4.90;;;0.90;;
73816;SDS011;62146;53.232;-1.304;2022-10-16T02:18:33;6.85;;;1.65;;
73816;SDS011;62146;53.232;-1.304;2022-10-16T02:21:01;3.60;;;0.80;;
73816;SDS011;62146;53.232;-1.304;2022-10-16T02:23:35;7.03;;;1.00;;
73816;SDS011;62146;53.232;-1.304;2022-10-16T02:26:11;5.05;;;0.90;;
73816;SDS011;62146;53.232;-1.304;2022-10-16T02:28:48;6.20;;;0.93;;
73816;SDS011;62146;53.232;-1.304;2022-10-16T02:31:23;4.90;;;0.75;;
73816;SDS011;62146;53.232;-1.304;2022-10-16T02:33:54;6.40;;;0.85;;
73816;SDS011;62146;53.232;-1.304;2022-10-16T02:36:24;4.93;;;0.80;;
73816;SDS011;62146;53.232;-1.304;2022-10-16T02:38:52;6.75;;;1.00;;
73816;SDS011;62146;53.232;-1.304;2022-10-16T02:41:21;4.97;;;0.88;;
73816;SDS011;62146;53.232;-1.304;2022-10-16T02:43:48;5.70;;;0.90;;
73816;SDS011;62146;53.232;-1.304;2022-10-16T02:46:16;4.25;;;1.00;;
73816;SDS011;62146;53.232;-1.304;2022-10-16T02:48:43;3.37;;;0.80;;
73816;SDS011;62146;53.232;-1.304;2022-10-16T02:51:10;4.55;;;0.75;;
73816;SDS011;62146;53.232;-1.304;2022-10-16T02:53:36;4.53;;;0.75;;
73816;SDS011;62146;53.232;-1.304;2022-10-16T02:56:03;3.08;;;0.85;;
73816;SDS011;62146;53.232;-1.304;2022-10-16T02:58:30;4.15;;;0.70;;
73816;SDS011;62146;53.232;-1.304;2022-10-16T03:00:56;3.23;;;0.53;;
73816;SDS011;62146;53.232;-1.304;2022-10-16T03:03:23;3.38;;;0.65;;
73816;SDS011;62146;53.232;-1.304;2022-10-16T03:05:49;5.15;;;0.85;;
73816;SDS011;62146;53.232;-1.304;2022-10-16T03:08:16;3.75;;;0.80;;
73816;SDS011;62146;53.232;-1.304;2022-10-16T03:10:43;3.30;;;0.90;;
73816;SDS011;62146;53.232;-1.304;2022-10-16T03:13:10;3.40;;;0.60;;
73816;SDS011;62146;53.232;-1.304;2022-10-16T03:15:36;3.63;;;0.60;;
73816;SDS011;62146;53.232;-1.304;2022-10-16T03:18:03;4.10;;;0.70;;
73816;SDS011;62146;53.232;-1.304;2022-10-16T03:20:29;4.10;;;1.10;;
73816;SDS011;62146;53.232;-1.304;2022-10-16T03:22:56;3.35;;;0.60;;
73816;SDS011;62146;53.232;-1.304;2022-10-16T03:25:22;5.63;;;0.80;;
73816;SDS011;62146;53.232;-1.304;2022-10-16T03:27:49;2.90;;;0.80;;
73816;SDS011;62146;53.232;-1.304;2022-10-16T03:30:15;4.47;;;0.70;;
73816;SDS011;62146;53.232;-1.304;2022-10-16T03:32:43;2.83;;;0.73;;
73816;SDS011;62146;53.232;-1.304;2022-10-16T03:35:10;3.00;;;0.65;;
73816;SDS011;62146;53.232;-1.304;2022-10-16T03:37:37;4.97;;;0.57;;
73816;SDS011;62146;53.232;-1.304;2022-10-16T03:40:04;3.53;;;0.60;;
73816;SDS011;62146;53.232;-1.304;2022-10-16T03:42:31;4.05;;;0.70;;
73816;SDS011;62146;53.232;-1.304;2022-10-16T03:44:57;5.18;;;0.80;;
73816;SDS011;62146;53.232;-1.304;2022-10-16T03:47:23;6.88;;;0.80;;
73816;SDS011;62146;53.232;-1.304;2022-10-16T03:49:50;4.00;;;0.60;;
73816;SDS011;62146;53.232;-1.304;2022-10-16T03:52:17;3.55;;;0.93;;
73816;SDS011;62146;53.232;-1.304;2022-10-16T03:54:49;5.25;;;0.73;;
73816;SDS011;62146;53.232;-1.304;2022-10-16T03:57:15;3.70;;;0.68;;
73816;SDS011;62146;53.232;-1.304;2022-10-16T03:59:42;2.63;;;0.43;;
73816;SDS011;62146;53.232;-1.304;2022-10-16T04:02:08;3.63;;;0.50;;
73816;SDS011;62146;53.232;-1.304;2022-10-16T04:04:35;4.60;;;0.90;;
73816;SDS011;62146;53.232;-1.304;2022-10-16T04:07:02;6.15;;;0.90;;
73816;SDS011;62146;53.232;-1.304;2022-10-16T04:09:28;4.78;;;1.17;;
73816;SDS011;62146;53.232;-1.304;2022-10-16T04:11:55;4.40;;;0.70;;
73816;SDS011;62146;53.232;-1.304;2022-10-16T04:14:21;4.70;;;0.70;;
73816;SDS011;62146;53.232;-1.304;2022-10-16T04:16:48;4.00;;;0.73;;
73816;SDS011;62146;53.232;-1.304;2022-10-16T04:19:14;5.25;;;0.80;;
73816;SDS011;62146;53.232;-1.304;2022-10-16T04:21:41;4.32;;;0.65;;
73816;SDS011;62146;53.232;-1.304;2022-10-16T04:24:07;4.70;;;0.95;;
73816;SDS011;62146;53.232;-1.304;2022-10-16T04:26:34;3.93;;;0.90;;
73816;SDS011;62146;53.232;-1.304;2022-10-16T04:29:00;3.60;;;0.90;;
73816;SDS011;62146;53.232;-1.304;2022-10-16T04:31:27;3.75;;;0.80;;
73816;SDS011;62146;53.232;-1.304;2022-10-16T04:33:54;2.25;;;0.70;;
73816;SDS011;62146;53.232;-1.304;2022-10-16T04:36:20;4.43;;;0.80;;
73816;SDS011;62146;53.232;-1.304;2022-10-16T04:38:51;2.23;;;0.50;;
73816;SDS011;62146;53.232;-1.304;2022-10-16T04:41:18;3.92;;;0.90;;
73816;SDS011;62146;53.232;-1.304;2022-10-16T04:43:44;5.63;;;0.93;;
73816;SDS011;62146;53.232;-1.304;2022-10-16T04:46:11;4.95;;;0.90;;
73816;SDS011;62146;53.232;-1.304;2022-10-16T04:48:37;4.78;;;0.80;;
73816;SDS011;62146;53.232;-1.304;2022-10-16T04:51:04;2.60;;;0.53;;
73816;SDS011;62146;53.232;-1.304;2022-10-16T04:53:31;3.63;;;0.70;;
73816;SDS011;62146;53.232;-1.304;2022-10-16T04:55:57;3.55;;;0.70;;
73816;SDS011;62146;53.232;-1.304;2022-10-16T04:58:24;5.63;;;0.68;;
73816;SDS011;62146;53.232;-1.304;2022-10-16T05:00:50;2.40;;;0.57;;
73816;SDS011;62146;53.232;-1.304;2022-10-16T05:03:17;3.30;;;0.60;;
73816;SDS011;62146;53.232;-1.304;2022-10-16T05:05:44;4.15;;;0.60;;
73816;SDS011;62146;53.232;-1.304;2022-10-16T05:08:12;2.60;;;0.60;;
73816;SDS011;62146;53.232;-1.304;2022-10-16T05:10:41;3.88;;;0.73;;
73816;SDS011;62146;53.232;-1.304;2022-10-16T05:13:09;4.13;;;0.82;;
73816;SDS011;62146;53.232;-1.304;2022-10-16T05:15:36;4.17;;;0.53;;
73816;SDS011;62146;53.232;-1.304;2022-10-16T05:18:02;4.53;;;0.70;;
73816;SDS011;62146;53.232;-1.304;2022-10-16T05:20:29;4.72;;;0.95;;
73816;SDS011;62146;53.232;-1.304;2022-10-16T05:22:55;4.38;;;0.68;;
73816;SDS011;62146;53.232;-1.304;2022-10-16T05:25:22;3.78;;;0.70;;
73816;SDS011;62146;53.232;-1.304;2022-10-16T05:27:49;4.30;;;0.70;;
73816;SDS011;62146;53.232;-1.304;2022-10-16T05:30:16;3.05;;;0.60;;
73816;SDS011;62146;53.232;-1.304;2022-10-16T05:32:47;5.22;;;0.80;;
73816;SDS011;62146;53.232;-1.304;2022-10-16T05:35:15;5.07;;;0.88;;
73816;SDS011;62146;53.232;-1.304;2022-10-16T05:37:43;4.63;;;0.85;;
73816;SDS011;62146;53.232;-1.304;2022-10-16T05:40:09;4.60;;;0.73;;
73816;SDS011;62146;53.232;-1.304;2022-10-16T05:42:36;3.78;;;0.98;;
73816;SDS011;62146;53.232;-1.304;2022-10-16T05:45:04;3.97;;;0.70;;
73816;SDS011;62146;53.232;-1.304;2022-10-16T05:47:32;3.35;;;0.77;;
73816;SDS011;62146;53.232;-1.304;2022-10-16T05:49:58;2.90;;;0.73;;
73816;SDS011;62146;53.232;-1.304;2022-10-16T05:52:26;5.67;;;0.90;;
73816;SDS011;62146;53.232;-1.304;2022-10-16T05:54:53;5.53;;;0.88;;
73816;SDS011;62146;53.232;-1.304;2022-10-16T05:57:19;3.25;;;0.60;;
73816;SDS011;62146;53.232;-1.304;2022-10-16T05:59:46;4.90;;;0.85;;
73816;SDS011;62146;53.232;-1.304;2022-10-16T06:02:13;2.63;;;0.70;;
73816;SDS011;62146;53.232;-1.304;2022-10-16T06:04:40;3.00;;;0.67;;
73816;SDS011;62146;53.232;-1.304;2022-10-16T06:07:07;5.22;;;0.90;;
73816;SDS011;62146;53.232;-1.304;2022-10-16T06:09:33;3.03;;;0.65;;
73816;SDS011;62146;53.232;-1.304;2022-10-16T06:12:00;4.10;;;0.70;;
73816;SDS011;62146;53.232;-1.304;2022-10-16T06:14:27;1.92;;;0.60;;
73816;SDS011;62146;53.232;-1.304;2022-10-16T06:16:53;4.50;;;0.80;;
73816;SDS011;62146;53.232;-1.304;2022-10-16T06:19:20;6.18;;;0.85;;
73816;SDS011;62146;53.232;-1.304;2022-10-16T06:21:47;3.13;;;0.70;;
73816;SDS011;62146;53.232;-1.304;2022-10-16T06:24:14;4.60;;;0.80;;
73816;SDS011;62146;53.232;-1.304;2022-10-16T06:26:40;4.75;;;0.95;;
73816;SDS011;62146;53.232;-1.304;2022-10-16T06:29:07;3.93;;;0.77;;
73816;SDS011;62146;53.232;-1.304;2022-10-16T06:31:34;3.92;;;0.68;;
73816;SDS011;62146;53.232;-1.304;2022-10-16T06:34:01;4.88;;;0.80;;
73816;SDS011;62146;53.232;-1.304;2022-10-16T06:36:28;3.55;;;0.80;;
73816;SDS011;62146;53.232;-1.304;2022-10-16T06:38:54;4.18;;;1.17;;
73816;SDS011;62146;53.232;-1.304;2022-10-16T06:41:21;2.37;;;0.80;;
73816;SDS011;62146;53.232;-1.304;2022-10-16T06:43:49;4.05;;;0.90;;
73816;SDS011;62146;53.232;-1.304;2022-10-16T06:46:17;3.47;;;0.60;;
73816;SDS011;62146;53.232;-1.304;2022-10-16T06:48:47;3.13;;;0.63;;
73816;SDS011;62146;53.232;-1.304;2022-10-16T06:51:15;4.47;;;0.70;;
73816;SDS011;62146;53.232;-1.304;2022-10-16T06:53:50;5.07;;;1.20;;
73816;SDS011;62146;53.232;-1.304;2022-10-16T06:56:33;3.72;;;0.52;;
73816;SDS011;62146;53.232;-1.304;2022-10-16T06:59:00;4.50;;;0.90;;
73816;SDS011;62146;53.232;-1.304;2022-10-16T07:01:27;5.28;;;1.00;;
73816;SDS011;62146;53.232;-1.304;2022-10-16T07:03:54;3.65;;;1.00;;
73816;SDS011;62146;53.232;-1.304;2022-10-16T07:06:22;3.70;;;0.70;;
73816;SDS011;62146;53.232;-1.304;2022-10-16T07:08:50;5.50;;;1.10;;
73816;SDS011;62146;53.232;-1.304;2022-10-16T07:11:19;3.35;;;0.90;;
73816;SDS011;62146;53.232;-1.304;2022-10-16T07:13:47;3.90;;;0.98;;
73816;SDS011;62146;53.232;-1.304;2022-10-16T07:16:21;5.50;;;1.00;;
73816;SDS011;62146;53.232;-1.304;2022-10-16T07:18:49;4.20;;;0.80;;
73816;SDS011;62146;53.232;-1.304;2022-10-16T07:21:21;4.72;;;0.80;;
73816;SDS011;62146;53.232;-1.304;2022-10-16T07:23:56;3.20;;;0.70;;
73816;SDS011;62146;53.232;-1.304;2022-10-16T07:26:24;3.58;;;0.70;;
73816;SDS011;62146;53.232;-1.304;2022-10-16T07:28:52;3.65;;;0.90;;
73816;SDS011;62146;53.232;-1.304;2022-10-16T07:31:19;5.97;;;0.90;;
73816;SDS011;62146;53.232;-1.304;2022-10-16T07:33:47;4.97;;;0.77;;
73816;SDS011;62146;53.232;-1.304;2022-10-16T07:36:15;4.15;;;1.02;;
73816;SDS011;62146;53.232;-1.304;2022-10-16T07:38:44;3.25;;;0.65;;
73816;SDS011;62146;53.232;-1.304;2022-10-16T07:41:15;3.70;;;1.00;;
73816;SDS011;62146;53.232;-1.304;2022-10-16T07:43:50;3.80;;;0.70;;
73816;SDS011;62146;53.232;-1.304;2022-10-16T07:46:18;3.50;;;0.70;;
73816;SDS011;62146;53.232;-1.304;2022-10-16T07:48:46;3.25;;;0.90;;
73816;SDS011;62146;53.232;-1.304;2022-10-16T07:51:15;4.32;;;1.13;;
73816;SDS011;62146;53.232;-1.304;2022-10-16T07:53:43;4.88;;;0.90;;
73816;SDS011;62146;53.232;-1.304;2022-10-16T07:56:10;3.93;;;1.10;;
73816;SDS011;62146;53.232;-1.304;2022-10-16T07:58:38;4.65;;;1.08;;
73816;SDS011;62146;53.232;-1.304;2022-10-16T08:01:06;3.45;;;0.90;;
73816;SDS011;62146;53.232;-1.304;2022-10-16T08:03:34;5.63;;;0.77;;
73816;SDS011;62146;53.232;-1.304;2022-10-16T08:06:01;3.67;;;0.70;;
73816;SDS011;62146;53.232;-1.304;2022-10-16T08:08:28;2.93;;;0.73;;
73816;SDS011;62146;53.232;-1.304;2022-10-16T08:10:55;5.97;;;0.65;;
73816;SDS011;62146;53.232;-1.304;2022-10-16T08:13:22;3.17;;;0.80;;
73816;SDS011;62146;53.232;-1.304;2022-10-16T08:15:49;3.25;;;0.77;;
73816;SDS011;62146;53.232;-1.304;2022-10-16T08:18:15;4.13;;;0.80;;
73816;SDS011;62146;53.232;-1.304;2022-10-16T08:20:42;6.33;;;1.00;;
73816;SDS011;62146;53.232;-1.304;2022-10-16T08:23:09;3.33;;;0.93;;
73816;SDS011;62146;53.232;-1.304;2022-10-16T08:25:37;4.10;;;1.00;;
73816;SDS011;62146;53.232;-1.304;2022-10-16T08:28:04;4.60;;;0.80;;
73816;SDS011;62146;53.232;-1.304;2022-10-16T08:30:32;4.00;;;0.85;;
73816;SDS011;62146;53.232;-1.304;2022-10-16T08:33:00;3.17;;;0.90;;
73816;SDS011;62146;53.232;-1.304;2022-10-16T08:35:28;5.18;;;0.80;;
73816;SDS011;62146;53.232;-1.304;2022-10-16T08:37:54;3.13;;;0.90;;
73816;SDS011;62146;53.232;-1.304;2022-10-16T08:40:28;3.38;;;0.88;;
73816;SDS011;62146;53.232;-1.304;2022-10-16T08:45:38;3.60;;;0.70;;
73816;SDS011;62146;53.232;-1.304;2022-10-16T08:48:54;2.70;;;0.80;;
73816;SDS011;62146;53.232;-1.304;2022-10-16T08:51:01;5.03;;;0.70;;
73816;SDS011;62146;53.232;-1.304;2022-10-16T08:53:31;3.22;;;0.90;;
73816;SDS011;62146;53.232;-1.304;2022-10-16T08:56:06;6.80;;;1.10;;
73816;SDS011;62146;53.232;-1.304;2022-10-16T08:58:33;3.60;;;0.90;;
73816;SDS011;62146;53.232;-1.304;2022-10-16T09:01:00;4.95;;;0.73;;
73816;SDS011;62146;53.232;-1.304;2022-10-16T09:03:33;4.25;;;0.77;;
73816;SDS011;62146;53.232;-1.304;2022-10-16T09:09:12;5.93;;;0.95;;
73816;SDS011;62146;53.232;-1.304;2022-10-16T09:14:40;5.55;;;1.00;;
73816;SDS011;62146;53.232;-1.304;2022-10-16T09:19:43;4.88;;;0.80;;
73816;SDS011;62146;53.232;-1.304;2022-10-16T09:22:17;5.43;;;1.10;;
73816;SDS011;62146;53.232;-1.304;2022-10-16T09:24:47;6.03;;;1.20;;
73816;SDS011;62146;53.232;-1.304;2022-10-16T09:27:14;4.78;;;1.08;;
73816;SDS011;62146;53.232;-1.304;2022-10-16T09:29:41;4.88;;;1.02;;
73816;SDS011;62146;53.232;-1.304;2022-10-16T09:32:12;6.40;;;1.00;;
73816;SDS011;62146;53.232;-1.304;2022-10-16T09:34:42;5.20;;;0.93;;
73816;SDS011;62146;53.232;-1.304;2022-10-16T09:37:14;3.37;;;0.60;;
73816;SDS011;62146;53.232;-1.304;2022-10-16T09:39:49;4.45;;;1.17;;
73816;SDS011;62146;53.232;-1.304;2022-10-16T09:42:20;4.80;;;0.77;;
73816;SDS011;62146;53.232;-1.304;2022-10-16T09:44:58;3.80;;;0.98;;
73816;SDS011;62146;53.232;-1.304;2022-10-16T09:47:26;2.50;;;0.82;;
73816;SDS011;62146;53.232;-1.304;2022-10-16T09:49:58;3.83;;;0.90;;
73816;SDS011;62146;53.232;-1.304;2022-10-16T09:52:32;5.65;;;1.02;;
73816;SDS011;62146;53.232;-1.304;2022-10-16T09:55:12;5.35;;;1.05;;
73816;SDS011;62146;53.232;-1.304;2022-10-16T09:57:53;3.50;;;0.90;;
73816;SDS011;62146;53.232;-1.304;2022-10-16T10:00:21;4.57;;;0.85;;
73816;SDS011;62146;53.232;-1.304;2022-10-16T10:02:49;3.27;;;0.70;;
73816;SDS011;62146;53.232;-1.304;2022-10-16T10:05:26;3.88;;;0.77;;
73816;SDS011;62146;53.232;-1.304;2022-10-16T10:07:58;4.45;;;0.77;;
73816;SDS011;62146;53.232;-1.304;2022-10-16T10:10:33;3.58;;;0.70;;
73816;SDS011;62146;53.232;-1.304;2022-10-16T10:13:14;4.55;;;0.75;;
73816;SDS011;62146;53.232;-1.304;2022-10-16T10:15:44;4.63;;;0.70;;
73816;SDS011;62146;53.232;-1.304;2022-10-16T10:18:16;5.45;;;1.40;;
73816;SDS011;62146;53.232;-1.304;2022-10-16T10:20:45;5.97;;;1.13;;
73816;SDS011;62146;53.232;-1.304;2022-10-16T10:23:22;3.38;;;0.80;;
73816;SDS011;62146;53.232;-1.304;2022-10-16T10:26:05;3.63;;;0.90;;
73816;SDS011;62146;53.232;-1.304;2022-10-16T10:31:17;4.53;;;0.90;;
73816;SDS011;62146;53.232;-1.304;2022-10-16T10:36:39;4.35;;;0.80;;
73816;SDS011;62146;53.232;-1.304;2022-10-16T10:47:40;3.75;;;0.75;;
73816;SDS011;62146;53.232;-1.304;2022-10-16T10:50:19;3.55;;;0.80;;
73816;SDS011;62146;53.232;-1.304;2022-10-16T11:04:11;5.93;;;0.77;;
73816;SDS011;62146;53.232;-1.304;2022-10-16T11:07:04;3.35;;;0.90;;
73816;SDS011;62146;53.232;-1.304;2022-10-16T11:09:37;4.20;;;0.80;;
73816;SDS011;62146;53.232;-1.304;2022-10-16T11:12:14;3.50;;;0.80;;
73816;SDS011;62146;53.232;-1.304;2022-10-16T11:14:50;3.90;;;0.77;;
73816;SDS011;62146;53.232;-1.304;2022-10-16T11:17:31;3.45;;;0.75;;
73816;SDS011;62146;53.232;-1.304;2022-10-16T11:20:05;3.22;;;0.70;;
73816;SDS011;62146;53.232;-1.304;2022-10-16T11:22:56;2.63;;;0.60;;
73816;SDS011;62146;53.232;-1.304;2022-10-16T11:25:32;3.25;;;0.80;;
73816;SDS011;62146;53.232;-1.304;2022-10-16T11:28:09;4.47;;;0.85;;
73816;SDS011;62146;53.232;-1.304;2022-10-16T11:33:39;3.67;;;0.70;;
73816;SDS011;62146;53.232;-1.304;2022-10-16T11:36:12;3.07;;;0.50;;
73816;SDS011;62146;53.232;-1.304;2022-10-16T11:39:02;3.00;;;0.57;;
73816;SDS011;62146;53.232;-1.304;2022-10-16T11:47:08;5.07;;;0.90;;
73816;SDS011;62146;53.232;-1.304;2022-10-16T11:50:02;3.57;;;0.87;;
73816;SDS011;62146;53.232;-1.304;2022-10-16T11:52:41;5.30;;;0.80;;
73816;SDS011;62146;53.232;-1.304;2022-10-16T11:55:19;6.57;;;0.95;;
73816;SDS011;62146;53.232;-1.304;2022-10-16T11:57:53;3.10;;;0.50;;
73816;SDS011;62146;53.232;-1.304;2022-10-16T12:00:46;3.35;;;0.68;;
73816;SDS011;62146;53.232;-1.304;2022-10-16T12:06:19;3.08;;;0.50;;
73816;SDS011;62146;53.232;-1.304;2022-10-16T12:08:53;3.10;;;0.50;;
73816;SDS011;62146;53.232;-1.304;2022-10-16T12:11:30;2.58;;;0.73;;
73816;SDS011;62146;53.232;-1.304;2022-10-16T12:16:50;3.83;;;0.70;;
73816;SDS011;62146;53.232;-1.304;2022-10-16T12:19:21;5.60;;;1.00;;
73816;SDS011;62146;53.232;-1.304;2022-10-16T12:21:49;2.15;;;0.60;;
73816;SDS011;62146;53.232;-1.304;2022-10-16T12:24:31;2.22;;;0.60;;
73816;SDS011;62146;53.232;-1.304;2022-10-16T12:27:28;2.72;;;0.70;;
73816;SDS011;62146;53.232;-1.304;2022-10-16T12:29:59;4.97;;;0.70;;
73816;SDS011;62146;53.232;-1.304;2022-10-16T12:35:18;4.15;;;0.77;;
73816;SDS011;62146;53.232;-1.304;2022-10-16T12:37:48;3.55;;;0.88;;
73816;SDS011;62146;53.232;-1.304;2022-10-16T12:42:48;4.07;;;0.73;;
73816;SDS011;62146;53.232;-1.304;2022-10-16T12:45:31;3.25;;;0.52;;
73816;SDS011;62146;53.232;-1.304;2022-10-16T12:48:02;2.75;;;0.80;;
73816;SDS011;62146;53.232;-1.304;2022-10-16T12:50:43;3.65;;;0.80;;
73816;SDS011;62146;53.232;-1.304;2022-10-16T12:53:18;3.58;;;0.60;;
73816;SDS011;62146;53.232;-1.304;2022-10-16T12:55:58;3.30;;;0.70;;
73816;SDS011;62146;53.232;-1.304;2022-10-16T13:09:29;2.70;;;0.60;;
73816;SDS011;62146;53.232;-1.304;2022-10-16T13:17:15;2.80;;;0.60;;
73816;SDS011;62146;53.232;-1.304;2022-10-16T13:27:53;2.08;;;0.57;;
73816;SDS011;62146;53.232;-1.304;2022-10-16T13:30:33;3.92;;;0.70;;
73816;SDS011;62146;53.232;-1.304;2022-10-16T13:33:17;2.42;;;0.60;;
73816;SDS011;62146;53.232;-1.304;2022-10-16T13:35:53;3.77;;;0.80;;
73816;SDS011;62146;53.232;-1.304;2022-10-16T13:38:30;4.25;;;0.77;;
73816;SDS011;62146;53.232;-1.304;2022-10-16T13:41:02;5.00;;;0.90;;
73816;SDS011;62146;53.232;-1.304;2022-10-16T13:46:14;2.75;;;0.60;;
73816;SDS011;62146;53.232;-1.304;2022-10-16T13:48:40;2.87;;;0.83;;
73816;SDS011;62146;53.232;-1.304;2022-10-16T13:51:14;3.58;;;0.80;;
73816;SDS011;62146;53.232;-1.304;2022-10-16T13:53:44;2.28;;;0.73;;
73816;SDS011;62146;53.232;-1.304;2022-10-16T13:56:13;3.17;;;0.70;;
73816;SDS011;62146;53.232;-1.304;2022-10-16T13:58:42;2.20;;;0.57;;
73816;SDS011;62146;53.232;-1.304;2022-10-16T14:01:26;2.67;;;0.70;;
73816;SDS011;62146;53.232;-1.304;2022-10-16T14:04:02;2.83;;;0.60;;
73816;SDS011;62146;53.232;-1.304;2022-10-16T14:06:34;3.10;;;0.73;;
73816;SDS011;62146;53.232;-1.304;2022-10-16T14:09:06;3.40;;;0.63;;
73816;SDS011;62146;53.232;-1.304;2022-10-16T14:11:37;4.85;;;0.77;;
73816;SDS011;62146;53.232;-1.304;2022-10-16T14:14:11;3.67;;;0.60;;
73816;SDS011;62146;53.232;-1.304;2022-10-16T14:16:39;4.40;;;0.80;;
73816;SDS011;62146;53.232;-1.304;2022-10-16T14:19:18;3.13;;;0.80;;
73816;SDS011;62146;53.232;-1.304;2022-10-16T14:21:46;3.47;;;0.90;;
73816;SDS011;62146;53.232;-1.304;2022-10-16T14:24:13;2.65;;;0.70;;
73816;SDS011;62146;53.232;-1.304;2022-10-16T14:26:52;4.00;;;0.70;;
73816;SDS011;62146;53.232;-1.304;2022-10-16T14:29:21;3.08;;;0.80;;
73816;SDS011;62146;53.232;-1.304;2022-10-16T14:31:56;3.63;;;1.00;;
73816;SDS011;62146;53.232;-1.304;2022-10-16T14:37:18;5.25;;;0.98;;
73816;SDS011;62146;53.232;-1.304;2022-10-16T14:39:54;3.73;;;0.80;;
73816;SDS011;62146;53.232;-1.304;2022-10-16T14:42:22;3.58;;;0.80;;
73816;SDS011;62146;53.232;-1.304;2022-10-16T14:44:51;3.08;;;0.90;;
73816;SDS011;62146;53.232;-1.304;2022-10-16T14:47:23;3.78;;;0.90;;
73816;SDS011;62146;53.232;-1.304;2022-10-16T14:49:53;3.13;;;0.85;;
73816;SDS011;62146;53.232;-1.304;2022-10-16T14:52:22;2.93;;;0.90;;
73816;SDS011;62146;53.232;-1.304;2022-10-16T14:54:49;3.40;;;0.75;;
73816;SDS011;62146;53.232;-1.304;2022-10-16T14:57:17;5.10;;;1.00;;
73816;SDS011;62146;53.232;-1.304;2022-10-16T14:59:46;3.78;;;1.13;;
73816;SDS011;62146;53.232;-1.304;2022-10-16T15:02:32;4.32;;;0.93;;
73816;SDS011;62146;53.232;-1.304;2022-10-16T15:05:10;3.57;;;1.00;;
73816;SDS011;62146;53.232;-1.304;2022-10-16T15:07:39;3.30;;;0.90;;
73816;SDS011;62146;53.232;-1.304;2022-10-16T15:10:06;5.13;;;1.10;;
73816;SDS011;62146;53.232;-1.304;2022-10-16T15:12:33;4.10;;;0.90;;
73816;SDS011;62146;53.232;-1.304;2022-10-16T15:14:59;3.53;;;1.20;;
73816;SDS011;62146;53.232;-1.304;2022-10-16T15:17:26;3.37;;;0.97;;
73816;SDS011;62146;53.232;-1.304;2022-10-16T15:19:53;5.25;;;0.80;;
73816;SDS011;62146;53.232;-1.304;2022-10-16T15:22:19;2.50;;;0.82;;
73816;SDS011;62146;53.232;-1.304;2022-10-16T15:24:49;4.05;;;1.00;;
73816;SDS011;62146;53.232;-1.304;2022-10-16T15:27:15;3.72;;;1.20;;
73816;SDS011;62146;53.232;-1.304;2022-10-16T15:29:42;3.93;;;0.97;;
73816;SDS011;62146;53.232;-1.304;2022-10-16T15:32:09;5.60;;;1.20;;
73816;SDS011;62146;53.232;-1.304;2022-10-16T15:34:36;4.85;;;1.50;;
73816;SDS011;62146;53.232;-1.304;2022-10-16T15:37:03;3.08;;;1.05;;
73816;SDS011;62146;53.232;-1.304;2022-10-16T15:39:30;5.25;;;1.27;;
73816;SDS011;62146;53.232;-1.304;2022-10-16T15:41:56;6.00;;;1.90;;
73816;SDS011;62146;53.232;-1.304;2022-10-16T15:44:23;5.00;;;1.65;;
73816;SDS011;62146;53.232;-1.304;2022-10-16T15:46:53;6.18;;;1.67;;
73816;SDS011;62146;53.232;-1.304;2022-10-16T15:49:20;6.22;;;1.80;;
73816;SDS011;62146;53.232;-1.304;2022-10-16T15:51:47;7.88;;;2.10;;
73816;SDS011;62146;53.232;-1.304;2022-10-16T15:54:13;5.77;;;2.00;;
73816;SDS011;62146;53.232;-1.304;2022-10-16T15:56:40;8.05;;;2.28;;
73816;SDS011;62146;53.232;-1.304;2022-10-16T15:59:06;7.47;;;2.40;;
73816;SDS011;62146;53.232;-1.304;2022-10-16T16:01:33;6.95;;;2.30;;
73816;SDS011;62146;53.232;-1.304;2022-10-16T16:04:01;6.22;;;2.20;;
73816;SDS011;62146;53.232;-1.304;2022-10-16T16:06:45;6.93;;;2.13;;
73816;SDS011;62146;53.232;-1.304;2022-10-16T16:09:12;7.25;;;2.13;;
73816;SDS011;62146;53.232;-1.304;2022-10-16T16:11:40;7.32;;;2.58;;
73816;SDS011;62146;53.232;-1.304;2022-10-16T16:14:07;6.95;;;2.28;;
73816;SDS011;62146;53.232;-1.304;2022-10-16T16:16:39;7.28;;;2.40;;
73816;SDS011;62146;53.232;-1.304;2022-10-16T16:19:05;7.00;;;2.07;;
73816;SDS011;62146;53.232;-1.304;2022-10-16T16:21:36;6.18;;;2.10;;
73816;SDS011;62146;53.232;-1.304;2022-10-16T16:24:03;7.15;;;1.77;;
73816;SDS011;62146;53.232;-1.304;2022-10-16T16:26:35;5.35;;;1.70;;
73816;SDS011;62146;53.232;-1.304;2022-10-16T16:29:05;4.95;;;1.83;;
73816;SDS011;62146;53.232;-1.304;2022-10-16T16:31:33;6.43;;;1.97;;
73816;SDS011;62146;53.232;-1.304;2022-10-16T16:34:01;5.63;;;1.70;;